sensor_id;sensor_type;location;lat;lon;timestamp;temperature;humidity
51305;HTU21D;37392;50.964;6.952;2023-04-28T00:00:44;12.59;73.35
51305;HTU21D;37392;50.964;6.952;2023-04-28T00:03:11;12.59;73.05
51305;HTU21D;37392;50.964;6.952;2023-04-28T00:05:37;12.57;74.51
51305;HTU21D;37392;50.964;6.952;2023-04-28T00:08:02;12.63;73.42
51305;HTU21D;37392;50.964;6.952;2023-04-28T00:10:30;12.60;73.12
51305;HTU21D;37392;50.964;6.952;2023-04-28T00:12:56;12.59;72.96
51305;HTU21D;37392;50.964;6.952;2023-04-28T00:15:21;12.65;72.50
51305;HTU21D;37392;50.964;6.952;2023-04-28T00:17:47;12.69;72.35
51305;HTU21D;37392;50.964;6.952;2023-04-28T00:20:12;12.65;73.01
51305;HTU21D;37392;50.964;6.952;2023-04-28T00:22:38;12.66;73.05
51305;HTU21D;37392;50.964;6.952;2023-04-28T00:25:04;12.60;73.45
51305;HTU21D;37392;50.964;6.952;2023-04-28T00:27:31;12.63;73.29
51305;HTU21D;37392;50.964;6.952;2023-04-28T00:29:57;12.55;73.72
51305;HTU21D;37392;50.964;6.952;2023-04-28T00:32:22;12.57;73.98
51305;HTU21D;37392;50.964;6.952;2023-04-28T00:34:48;12.56;73.68
51305;HTU21D;37392;50.964;6.952;2023-04-28T00:37:13;12.57;75.07
51305;HTU21D;37392;50.964;6.952;2023-04-28T00:39:38;12.48;76.85
51305;HTU21D;37392;50.964;6.952;2023-04-28T00:42:05;12.42;77.72
51305;HTU21D;37392;50.964;6.952;2023-04-28T00:44:31;12.34;78.56
51305;HTU21D;37392;50.964;6.952;2023-04-28T00:46:57;12.29;78.50
51305;HTU21D;37392;50.964;6.952;2023-04-28T00:49:24;12.22;78.79
51305;HTU21D;37392;50.964;6.952;2023-04-28T00:51:50;12.27;77.06
51305;HTU21D;37392;50.964;6.952;2023-04-28T00:54:15;12.22;76.44
51305;HTU21D;37392;50.964;6.952;2023-04-28T00:56:41;12.31;75.35
51305;HTU21D;37392;50.964;6.952;2023-04-28T00:59:07;12.34;75.33
51305;HTU21D;37392;50.964;6.952;2023-04-28T01:01:33;12.34;75.05
51305;HTU21D;37392;50.964;6.952;2023-04-28T01:03:59;12.42;74.91
51305;HTU21D;37392;50.964;6.952;2023-04-28T01:06:25;12.40;74.76
51305;HTU21D;37392;50.964;6.952;2023-04-28T01:08:51;12.44;76.73
51305;HTU21D;37392;50.964;6.952;2023-04-28T01:11:17;12.23;84.54
51305;HTU21D;37392;50.964;6.952;2023-04-28T01:13:42;11.88;89.50
51305;HTU21D;37392;50.964;6.952;2023-04-28T01:16:08;11.54;90.78
51305;HTU21D;37392;50.964;6.952;2023-04-28T01:18:33;11.19;94.79
51305;HTU21D;37392;50.964;6.952;2023-04-28T01:20:59;10.85;99.16
51305;HTU21D;37392;50.964;6.952;2023-04-28T01:23:24;10.60;101.80
51305;HTU21D;37392;50.964;6.952;2023-04-28T01:25:50;10.48;104.68
51305;HTU21D;37392;50.964;6.952;2023-04-28T01:28:15;10.27;105.62
51305;HTU21D;37392;50.964;6.952;2023-04-28T01:30:41;10.09;108.82
51305;HTU21D;37392;50.964;6.952;2023-04-28T01:33:06;10.03;109.01
51305;HTU21D;37392;50.964;6.952;2023-04-28T01:35:32;10.01;109.33
51305;HTU21D;37392;50.964;6.952;2023-04-28T01:37:57;9.94;110.02
51305;HTU21D;37392;50.964;6.952;2023-04-28T01:40:23;9.93;110.72
51305;HTU21D;37392;50.964;6.952;2023-04-28T01:42:48;9.92;110.08
51305;HTU21D;37392;50.964;6.952;2023-04-28T01:45:14;9.91;111.61
51305;HTU21D;37392;50.964;6.952;2023-04-28T01:47:39;9.89;112.23
51305;HTU21D;37392;50.964;6.952;2023-04-28T01:50:05;9.97;109.59
51305;HTU21D;37392;50.964;6.952;2023-04-28T01:52:31;10.01;108.76
51305;HTU21D;37392;50.964;6.952;2023-04-28T01:54:56;10.07;109.03
51305;HTU21D;37392;50.964;6.952;2023-04-28T01:57:22;10.13;108.03
51305;HTU21D;37392;50.964;6.952;2023-04-28T01:59:47;10.13;108.16
51305;HTU21D;37392;50.964;6.952;2023-04-28T02:02:13;10.11;108.61
51305;HTU21D;37392;50.964;6.952;2023-04-28T02:04:38;10.12;108.94
51305;HTU21D;37392;50.964;6.952;2023-04-28T02:07:04;10.13;110.17
51305;HTU21D;37392;50.964;6.952;2023-04-28T02:09:30;10.14;109.14
51305;HTU21D;37392;50.964;6.952;2023-04-28T02:11:56;10.22;108.19
51305;HTU21D;37392;50.964;6.952;2023-04-28T02:14:22;10.25;108.06
51305;HTU21D;37392;50.964;6.952;2023-04-28T02:16:47;10.26;108.04
51305;HTU21D;37392;50.964;6.952;2023-04-28T02:19:13;10.25;109.10
51305;HTU21D;37392;50.964;6.952;2023-04-28T02:21:40;10.24;109.68
51305;HTU21D;37392;50.964;6.952;2023-04-28T02:24:06;10.19;109.78
51305;HTU21D;37392;50.964;6.952;2023-04-28T02:26:32;10.15;110.74
51305;HTU21D;37392;50.964;6.952;2023-04-28T02:28:58;10.13;110.17
51305;HTU21D;37392;50.964;6.952;2023-04-28T02:31:23;10.10;110.31
51305;HTU21D;37392;50.964;6.952;2023-04-28T02:33:48;10.00;110.28
51305;HTU21D;37392;50.964;6.952;2023-04-28T02:36:14;10.04;111.00
51305;HTU21D;37392;50.964;6.952;2023-04-28T02:38:39;10.00;110.68
51305;HTU21D;37392;50.964;6.952;2023-04-28T02:41:06;10.04;110.08
51305;HTU21D;37392;50.964;6.952;2023-04-28T02:43:33;10.06;109.07
51305;HTU21D;37392;50.964;6.952;2023-04-28T02:45:59;10.04;108.62
51305;HTU21D;37392;50.964;6.952;2023-04-28T02:48:24;10.04;109.58
51305;HTU21D;37392;50.964;6.952;2023-04-28T02:50:50;10.04;110.32
51305;HTU21D;37392;50.964;6.952;2023-04-28T02:53:17;10.05;110.51
51305;HTU21D;37392;50.964;6.952;2023-04-28T02:55:43;10.06;110.83
51305;HTU21D;37392;50.964;6.952;2023-04-28T02:58:08;10.04;110.51
51305;HTU21D;37392;50.964;6.952;2023-04-28T03:00:34;10.10;109.59
51305;HTU21D;37392;50.964;6.952;2023-04-28T03:02:59;10.11;109.97
51305;HTU21D;37392;50.964;6.952;2023-04-28T03:05:26;10.08;110.29
51305;HTU21D;37392;50.964;6.952;2023-04-28T03:07:53;10.10;109.19
51305;HTU21D;37392;50.964;6.952;2023-04-28T03:10:19;10.14;109.56
51305;HTU21D;37392;50.964;6.952;2023-04-28T03:12:44;10.12;109.24
51305;HTU21D;37392;50.964;6.952;2023-04-28T03:15:10;10.15;108.51
51305;HTU21D;37392;50.964;6.952;2023-04-28T03:17:36;10.12;109.10
51305;HTU21D;37392;50.964;6.952;2023-04-28T03:20:06;10.12;110.04
51305;HTU21D;37392;50.964;6.952;2023-04-28T03:22:32;10.10;110.12
51305;HTU21D;37392;50.964;6.952;2023-04-28T03:24:57;10.05;111.60
51305;HTU21D;37392;50.964;6.952;2023-04-28T03:27:23;10.01;111.00
51305;HTU21D;37392;50.964;6.952;2023-04-28T03:29:49;10.06;111.20
51305;HTU21D;37392;50.964;6.952;2023-04-28T03:32:14;10.05;110.87
51305;HTU21D;37392;50.964;6.952;2023-04-28T03:34:40;10.04;112.15
51305;HTU21D;37392;50.964;6.952;2023-04-28T03:37:05;10.00;112.32
51305;HTU21D;37392;50.964;6.952;2023-04-28T03:39:31;9.97;112.62
51305;HTU21D;37392;50.964;6.952;2023-04-28T03:41:56;9.94;112.87
51305;HTU21D;37392;50.964;6.952;2023-04-28T03:44:22;9.83;114.46
51305;HTU21D;37392;50.964;6.952;2023-04-28T03:46:47;9.75;115.22
51305;HTU21D;37392;50.964;6.952;2023-04-28T03:49:13;9.66;115.79
51305;HTU21D;37392;50.964;6.952;2023-04-28T03:51:39;9.59;116.15
51305;HTU21D;37392;50.964;6.952;2023-04-28T03:54:05;9.45;116.45
51305;HTU21D;37392;50.964;6.952;2023-04-28T03:56:30;9.40;117.70
51305;HTU21D;37392;50.964;6.952;2023-04-28T03:58:56;9.35;118.63
51305;HTU21D;37392;50.964;6.952;2023-04-28T04:01:21;9.40;118.66
51305;HTU21D;37392;50.964;6.952;2023-04-28T04:03:47;9.38;-5.89
51305;HTU21D;37392;50.964;6.952;2023-04-28T04:06:12;9.38;-5.43
51305;HTU21D;37392;50.964;6.952;2023-04-28T04:08:38;9.40;-5.76
51305;HTU21D;37392;50.964;6.952;2023-04-28T04:11:03;9.32;-5.13
51305;HTU21D;37392;50.964;6.952;2023-04-28T04:13:29;9.33;-5.37
51305;HTU21D;37392;50.964;6.952;2023-04-28T04:15:54;9.36;-5.96
51305;HTU21D;37392;50.964;6.952;2023-04-28T04:18:20;9.34;-5.68
51305;HTU21D;37392;50.964;6.952;2023-04-28T04:20:45;9.29;-5.70
51305;HTU21D;37392;50.964;6.952;2023-04-28T04:23:11;9.31;118.64
51305;HTU21D;37392;50.964;6.952;2023-04-28T04:25:36;9.35;118.30
51305;HTU21D;37392;50.964;6.952;2023-04-28T04:28:02;9.40;118.38
51305;HTU21D;37392;50.964;6.952;2023-04-28T04:30:27;9.44;117.49
51305;HTU21D;37392;50.964;6.952;2023-04-28T04:32:53;9.48;116.47
51305;HTU21D;37392;50.964;6.952;2023-04-28T04:35:18;9.52;116.54
51305;HTU21D;37392;50.964;6.952;2023-04-28T04:37:44;9.54;116.29
51305;HTU21D;37392;50.964;6.952;2023-04-28T04:40:09;9.62;115.80
51305;HTU21D;37392;50.964;6.952;2023-04-28T04:42:35;9.70;115.21
51305;HTU21D;37392;50.964;6.952;2023-04-28T04:45:00;9.72;115.27
51305;HTU21D;37392;50.964;6.952;2023-04-28T04:47:26;9.79;114.78
51305;HTU21D;37392;50.964;6.952;2023-04-28T04:49:52;9.79;114.43
51305;HTU21D;37392;50.964;6.952;2023-04-28T04:52:17;9.85;113.62
51305;HTU21D;37392;50.964;6.952;2023-04-28T04:54:43;9.91;114.00
51305;HTU21D;37392;50.964;6.952;2023-04-28T04:57:10;9.92;113.38
51305;HTU21D;37392;50.964;6.952;2023-04-28T04:59:36;9.96;113.60
51305;HTU21D;37392;50.964;6.952;2023-04-28T05:02:01;10.06;112.27
51305;HTU21D;37392;50.964;6.952;2023-04-28T05:04:27;10.06;112.96
51305;HTU21D;37392;50.964;6.952;2023-04-28T05:06:52;10.06;113.17
51305;HTU21D;37392;50.964;6.952;2023-04-28T05:09:18;10.06;113.13
51305;HTU21D;37392;50.964;6.952;2023-04-28T05:11:44;10.05;113.26
51305;HTU21D;37392;50.964;6.952;2023-04-28T05:14:09;10.08;112.80
51305;HTU21D;37392;50.964;6.952;2023-04-28T05:16:36;10.11;112.42
51305;HTU21D;37392;50.964;6.952;2023-04-28T05:19:02;10.19;111.96
51305;HTU21D;37392;50.964;6.952;2023-04-28T05:21:28;10.21;111.79
51305;HTU21D;37392;50.964;6.952;2023-04-28T05:23:54;10.24;111.97
51305;HTU21D;37392;50.964;6.952;2023-04-28T05:26:20;10.25;111.47
51305;HTU21D;37392;50.964;6.952;2023-04-28T05:28:45;10.28;112.67
51305;HTU21D;37392;50.964;6.952;2023-04-28T05:31:11;10.31;112.04
51305;HTU21D;37392;50.964;6.952;2023-04-28T05:33:36;10.36;111.89
51305;HTU21D;37392;50.964;6.952;2023-04-28T05:36:02;10.36;111.75
51305;HTU21D;37392;50.964;6.952;2023-04-28T05:38:28;10.30;112.88
51305;HTU21D;37392;50.964;6.952;2023-04-28T05:40:53;10.27;113.46
51305;HTU21D;37392;50.964;6.952;2023-04-28T05:43:19;10.25;113.45
51305;HTU21D;37392;50.964;6.952;2023-04-28T05:45:44;10.25;113.55
51305;HTU21D;37392;50.964;6.952;2023-04-28T05:48:10;10.25;114.50
51305;HTU21D;37392;50.964;6.952;2023-04-28T05:50:35;10.28;114.69
51305;HTU21D;37392;50.964;6.952;2023-04-28T05:53:00;10.25;114.19
51305;HTU21D;37392;50.964;6.952;2023-04-28T05:55:26;10.23;114.20
51305;HTU21D;37392;50.964;6.952;2023-04-28T05:57:52;10.21;116.14
51305;HTU21D;37392;50.964;6.952;2023-04-28T06:00:18;10.25;115.81
51305;HTU21D;37392;50.964;6.952;2023-04-28T06:02:43;10.28;114.99
51305;HTU21D;37392;50.964;6.952;2023-04-28T06:05:09;10.35;115.30
51305;HTU21D;37392;50.964;6.952;2023-04-28T06:07:35;10.39;115.83
51305;HTU21D;37392;50.964;6.952;2023-04-28T06:10:00;10.44;114.94
51305;HTU21D;37392;50.964;6.952;2023-04-28T06:12:26;10.53;114.90
51305;HTU21D;37392;50.964;6.952;2023-04-28T06:14:51;10.56;114.51
51305;HTU21D;37392;50.964;6.952;2023-04-28T06:17:19;10.60;113.67
51305;HTU21D;37392;50.964;6.952;2023-04-28T06:19:45;10.66;114.45
51305;HTU21D;37392;50.964;6.952;2023-04-28T06:22:11;10.71;114.43
51305;HTU21D;37392;50.964;6.952;2023-04-28T06:24:36;10.73;113.48
51305;HTU21D;37392;50.964;6.952;2023-04-28T06:27:02;10.72;114.24
51305;HTU21D;37392;50.964;6.952;2023-04-28T06:29:27;10.78;112.92
51305;HTU21D;37392;50.964;6.952;2023-04-28T06:31:53;10.85;113.61
51305;HTU21D;37392;50.964;6.952;2023-04-28T06:34:23;10.87;112.35
51305;HTU21D;37392;50.964;6.952;2023-04-28T06:36:51;10.85;113.32
51305;HTU21D;37392;50.964;6.952;2023-04-28T06:39:17;10.99;113.10
51305;HTU21D;37392;50.964;6.952;2023-04-28T06:41:42;11.11;111.98
51305;HTU21D;37392;50.964;6.952;2023-04-28T06:44:08;11.23;112.17
51305;HTU21D;37392;50.964;6.952;2023-04-28T06:46:35;11.25;110.81
51305;HTU21D;37392;50.964;6.952;2023-04-28T06:49:01;11.34;111.89
51305;HTU21D;37392;50.964;6.952;2023-04-28T06:51:26;11.38;110.70
51305;HTU21D;37392;50.964;6.952;2023-04-28T06:53:53;11.40;110.83
51305;HTU21D;37392;50.964;6.952;2023-04-28T06:56:18;11.54;109.75
51305;HTU21D;37392;50.964;6.952;2023-04-28T06:58:44;11.67;109.64
51305;HTU21D;37392;50.964;6.952;2023-04-28T07:01:09;11.78;109.74
51305;HTU21D;37392;50.964;6.952;2023-04-28T07:03:35;12.00;107.91
51305;HTU21D;37392;50.964;6.952;2023-04-28T07:06:00;12.19;107.90
51305;HTU21D;37392;50.964;6.952;2023-04-28T07:08:27;12.21;106.56
51305;HTU21D;37392;50.964;6.952;2023-04-28T07:10:54;12.21;105.92
51305;HTU21D;37392;50.964;6.952;2023-04-28T07:13:20;12.23;104.71
51305;HTU21D;37392;50.964;6.952;2023-04-28T07:15:46;12.28;106.69
51305;HTU21D;37392;50.964;6.952;2023-04-28T07:18:11;12.20;105.60
51305;HTU21D;37392;50.964;6.952;2023-04-28T07:20:37;12.20;105.73
51305;HTU21D;37392;50.964;6.952;2023-04-28T07:23:02;12.15;105.43
51305;HTU21D;37392;50.964;6.952;2023-04-28T07:25:28;12.18;105.22
51305;HTU21D;37392;50.964;6.952;2023-04-28T07:27:53;12.19;105.38
51305;HTU21D;37392;50.964;6.952;2023-04-28T07:30:19;12.19;106.16
51305;HTU21D;37392;50.964;6.952;2023-04-28T07:32:45;12.19;106.24
51305;HTU21D;37392;50.964;6.952;2023-04-28T07:35:10;12.26;105.50
51305;HTU21D;37392;50.964;6.952;2023-04-28T07:37:36;12.19;106.44
51305;HTU21D;37392;50.964;6.952;2023-04-28T07:40:02;12.29;106.43
51305;HTU21D;37392;50.964;6.952;2023-04-28T07:42:27;12.52;106.85
51305;HTU21D;37392;50.964;6.952;2023-04-28T07:44:53;13.03;105.66
51305;HTU21D;37392;50.964;6.952;2023-04-28T07:47:18;13.63;103.97
51305;HTU21D;37392;50.964;6.952;2023-04-28T07:49:44;14.27;99.61
51305;HTU21D;37392;50.964;6.952;2023-04-28T07:52:09;14.26;96.33
51305;HTU21D;37392;50.964;6.952;2023-04-28T07:54:35;14.19;97.19
51305;HTU21D;37392;50.964;6.952;2023-04-28T07:57:01;14.24;96.83
51305;HTU21D;37392;50.964;6.952;2023-04-28T07:59:30;14.34;95.88
51305;HTU21D;37392;50.964;6.952;2023-04-28T08:02:00;14.27;95.92
51305;HTU21D;37392;50.964;6.952;2023-04-28T08:04:25;14.29;95.59
51305;HTU21D;37392;50.964;6.952;2023-04-28T08:06:51;14.49;96.76
51305;HTU21D;37392;50.964;6.952;2023-04-28T08:09:18;14.79;95.26
51305;HTU21D;37392;50.964;6.952;2023-04-28T08:11:43;15.16;94.00
51305;HTU21D;37392;50.964;6.952;2023-04-28T08:14:09;15.93;93.92
51305;HTU21D;37392;50.964;6.952;2023-04-28T08:16:34;16.35;89.86
51305;HTU21D;37392;50.964;6.952;2023-04-28T08:19:02;17.04;86.52
51305;HTU21D;37392;50.964;6.952;2023-04-28T08:21:27;17.66;84.32
51305;HTU21D;37392;50.964;6.952;2023-04-28T08:23:53;17.96;82.09
51305;HTU21D;37392;50.964;6.952;2023-04-28T08:26:18;17.91;82.26
51305;HTU21D;37392;50.964;6.952;2023-04-28T08:28:44;17.21;82.01
51305;HTU21D;37392;50.964;6.952;2023-04-28T08:31:09;16.61;83.74
51305;HTU21D;37392;50.964;6.952;2023-04-28T08:33:35;16.33;85.57
51305;HTU21D;37392;50.964;6.952;2023-04-28T08:36:00;16.57;86.34
51305;HTU21D;37392;50.964;6.952;2023-04-28T08:38:26;16.59;84.43
51305;HTU21D;37392;50.964;6.952;2023-04-28T08:40:51;16.66;85.36
51305;HTU21D;37392;50.964;6.952;2023-04-28T08:43:17;16.63;84.00
51305;HTU21D;37392;50.964;6.952;2023-04-28T08:45:44;16.65;84.28
51305;HTU21D;37392;50.964;6.952;2023-04-28T08:48:17;16.77;84.01
51305;HTU21D;37392;50.964;6.952;2023-04-28T08:50:50;16.85;83.40
51305;HTU21D;37392;50.964;6.952;2023-04-28T08:53:21;16.85;83.35
51305;HTU21D;37392;50.964;6.952;2023-04-28T08:55:53;16.90;82.92
51305;HTU21D;37392;50.964;6.952;2023-04-28T08:58:21;16.86;83.68
51305;HTU21D;37392;50.964;6.952;2023-04-28T09:00:48;17.29;84.87
51305;HTU21D;37392;50.964;6.952;2023-04-28T09:03:14;17.11;83.93
51305;HTU21D;37392;50.964;6.952;2023-04-28T09:05:39;17.02;85.11
51305;HTU21D;37392;50.964;6.952;2023-04-28T09:08:05;16.90;85.85
51305;HTU21D;37392;50.964;6.952;2023-04-28T09:10:30;17.03;85.84
51305;HTU21D;37392;50.964;6.952;2023-04-28T09:12:56;16.84;87.74
51305;HTU21D;37392;50.964;6.952;2023-04-28T09:17:57;16.82;87.97
51305;HTU21D;37392;50.964;6.952;2023-04-28T09:20:26;16.49;94.69
51305;HTU21D;37392;50.964;6.952;2023-04-28T09:22:53;16.35;99.78
51305;HTU21D;37392;50.964;6.952;2023-04-28T09:25:20;15.93;99.93
51305;HTU21D;37392;50.964;6.952;2023-04-28T09:27:47;15.63;104.15
51305;HTU21D;37392;50.964;6.952;2023-04-28T09:30:13;15.63;106.11
51305;HTU21D;37392;50.964;6.952;2023-04-28T09:32:38;15.43;105.92
51305;HTU21D;37392;50.964;6.952;2023-04-28T09:35:04;15.37;108.65
51305;HTU21D;37392;50.964;6.952;2023-04-28T09:37:31;15.28;109.85
51305;HTU21D;37392;50.964;6.952;2023-04-28T09:40:04;15.46;110.81
51305;HTU21D;37392;50.964;6.952;2023-04-28T09:42:34;15.73;109.32
51305;HTU21D;37392;50.964;6.952;2023-04-28T09:45:10;15.83;108.18
51305;HTU21D;37392;50.964;6.952;2023-04-28T09:47:41;15.72;105.15
51305;HTU21D;37392;50.964;6.952;2023-04-28T09:50:08;15.44;105.57
51305;HTU21D;37392;50.964;6.952;2023-04-28T09:52:39;15.14;109.07
51305;HTU21D;37392;50.964;6.952;2023-04-28T09:55:06;15.13;112.95
51305;HTU21D;37392;50.964;6.952;2023-04-28T09:57:35;15.00;115.41
51305;HTU21D;37392;50.964;6.952;2023-04-28T10:00:01;14.79;115.27
51305;HTU21D;37392;50.964;6.952;2023-04-28T10:02:30;14.79;117.25
51305;HTU21D;37392;50.964;6.952;2023-04-28T10:04:57;14.81;117.86
51305;HTU21D;37392;50.964;6.952;2023-04-28T10:07:23;14.88;117.95
51305;HTU21D;37392;50.964;6.952;2023-04-28T10:09:49;14.98;-4.80
51305;HTU21D;37392;50.964;6.952;2023-04-28T10:12:15;14.91;-4.16
51305;HTU21D;37392;50.964;6.952;2023-04-28T10:14:42;14.72;-4.12
51305;HTU21D;37392;50.964;6.952;2023-04-28T10:17:09;14.63;-2.87
51305;HTU21D;37392;50.964;6.952;2023-04-28T10:19:35;14.66;-1.39
51305;HTU21D;37392;50.964;6.952;2023-04-28T10:24:30;14.82;-0.93
51305;HTU21D;37392;50.964;6.952;2023-04-28T10:29:30;15.44;0.54
51305;HTU21D;37392;50.964;6.952;2023-04-28T10:34:42;16.30;-3.89
51305;HTU21D;37392;50.964;6.952;2023-04-28T10:37:12;16.46;115.38
51305;HTU21D;37392;50.964;6.952;2023-04-28T10:39:39;16.71;115.71
51305;HTU21D;37392;50.964;6.952;2023-04-28T10:42:37;16.90;115.03
51305;HTU21D;37392;50.964;6.952;2023-04-28T10:45:09;17.13;113.61
51305;HTU21D;37392;50.964;6.952;2023-04-28T10:50:30;17.16;112.69
51305;HTU21D;37392;50.964;6.952;2023-04-28T10:52:56;17.25;113.60
51305;HTU21D;37392;50.964;6.952;2023-04-28T10:58:33;17.88;112.10
51305;HTU21D;37392;50.964;6.952;2023-04-28T11:00:40;18.02;108.80
51305;HTU21D;37392;50.964;6.952;2023-04-28T11:03:05;18.30;107.20
51305;HTU21D;37392;50.964;6.952;2023-04-28T11:05:31;18.40;107.83
51305;HTU21D;37392;50.964;6.952;2023-04-28T11:13:37;19.27;105.37
51305;HTU21D;37392;50.964;6.952;2023-04-28T11:16:02;18.98;102.28
51305;HTU21D;37392;50.964;6.952;2023-04-28T11:21:17;19.39;99.99
51305;HTU21D;37392;50.964;6.952;2023-04-28T11:23:43;19.82;100.10
51305;HTU21D;37392;50.964;6.952;2023-04-28T11:26:09;19.58;97.82
51305;HTU21D;37392;50.964;6.952;2023-04-28T11:28:35;20.10;95.36
51305;HTU21D;37392;50.964;6.952;2023-04-28T11:31:11;20.36;95.54
51305;HTU21D;37392;50.964;6.952;2023-04-28T11:33:37;20.25;94.06
51305;HTU21D;37392;50.964;6.952;2023-04-28T11:36:04;20.27;92.46
51305;HTU21D;37392;50.964;6.952;2023-04-28T11:38:41;20.14;91.68
51305;HTU21D;37392;50.964;6.952;2023-04-28T11:41:07;20.54;95.39
51305;HTU21D;37392;50.964;6.952;2023-04-28T11:43:32;20.66;93.27
51305;HTU21D;37392;50.964;6.952;2023-04-28T11:45:58;19.88;93.57
51305;HTU21D;37392;50.964;6.952;2023-04-28T11:48:23;19.89;95.71
51305;HTU21D;37392;50.964;6.952;2023-04-28T11:50:49;20.18;95.99
51305;HTU21D;37392;50.964;6.952;2023-04-28T11:53:14;20.48;94.81
51305;HTU21D;37392;50.964;6.952;2023-04-28T11:55:40;20.70;93.28
51305;HTU21D;37392;50.964;6.952;2023-04-28T11:58:21;21.02;91.95
51305;HTU21D;37392;50.964;6.952;2023-04-28T12:03:45;22.02;87.54
51305;HTU21D;37392;50.964;6.952;2023-04-28T12:06:11;22.09;85.09
51305;HTU21D;37392;50.964;6.952;2023-04-28T12:08:36;22.49;83.92
51305;HTU21D;37392;50.964;6.952;2023-04-28T12:13:35;22.82;83.39
51305;HTU21D;37392;50.964;6.952;2023-04-28T12:16:01;22.99;84.54
51305;HTU21D;37392;50.964;6.952;2023-04-28T12:18:29;22.84;81.96
51305;HTU21D;37392;50.964;6.952;2023-04-28T12:20:56;22.88;82.45
51305;HTU21D;37392;50.964;6.952;2023-04-28T12:23:31;22.52;80.57
51305;HTU21D;37392;50.964;6.952;2023-04-28T12:25:57;22.47;84.67
51305;HTU21D;37392;50.964;6.952;2023-04-28T12:28:23;22.88;84.93
51305;HTU21D;37392;50.964;6.952;2023-04-28T12:31:04;23.26;81.67
51305;HTU21D;37392;50.964;6.952;2023-04-28T12:33:33;23.59;80.69
51305;HTU21D;37392;50.964;6.952;2023-04-28T12:36:02;23.44;77.88
51305;HTU21D;37392;50.964;6.952;2023-04-28T12:38:28;23.01;78.93
51305;HTU21D;37392;50.964;6.952;2023-04-28T12:40:54;22.80;78.80
51305;HTU21D;37392;50.964;6.952;2023-04-28T12:43:20;22.36;79.09
51305;HTU21D;37392;50.964;6.952;2023-04-28T12:45:50;22.75;79.06
51305;HTU21D;37392;50.964;6.952;2023-04-28T12:48:17;22.81;78.37
51305;HTU21D;37392;50.964;6.952;2023-04-28T12:50:42;23.27;77.40
51305;HTU21D;37392;50.964;6.952;2023-04-28T12:53:08;23.52;76.15
51305;HTU21D;37392;50.964;6.952;2023-04-28T12:55:34;23.45;75.67
51305;HTU21D;37392;50.964;6.952;2023-04-28T12:58:00;22.83;76.37
51305;HTU21D;37392;50.964;6.952;2023-04-28T13:00:25;22.69;77.56
51305;HTU21D;37392;50.964;6.952;2023-04-28T13:02:51;22.40;78.55
51305;HTU21D;37392;50.964;6.952;2023-04-28T13:05:17;22.17;78.84
51305;HTU21D;37392;50.964;6.952;2023-04-28T13:07:43;22.46;80.91
51305;HTU21D;37392;50.964;6.952;2023-04-28T13:10:09;22.68;78.18
51305;HTU21D;37392;50.964;6.952;2023-04-28T13:12:35;22.52;79.02
51305;HTU21D;37392;50.964;6.952;2023-04-28T13:15:01;22.77;77.24
51305;HTU21D;37392;50.964;6.952;2023-04-28T13:17:26;22.72;76.70
51305;HTU21D;37392;50.964;6.952;2023-04-28T13:19:52;22.79;76.42
51305;HTU21D;37392;50.964;6.952;2023-04-28T13:22:18;23.27;78.30
51305;HTU21D;37392;50.964;6.952;2023-04-28T13:24:45;23.36;76.87
51305;HTU21D;37392;50.964;6.952;2023-04-28T13:27:11;23.32;77.89
51305;HTU21D;37392;50.964;6.952;2023-04-28T13:29:37;23.08;76.64
51305;HTU21D;37392;50.964;6.952;2023-04-28T13:32:02;22.61;77.30
51305;HTU21D;37392;50.964;6.952;2023-04-28T13:34:29;22.40;78.48
51305;HTU21D;37392;50.964;6.952;2023-04-28T13:36:55;22.31;79.04
51305;HTU21D;37392;50.964;6.952;2023-04-28T13:39:21;22.10;79.24
51305;HTU21D;37392;50.964;6.952;2023-04-28T13:41:47;21.88;79.98
51305;HTU21D;37392;50.964;6.952;2023-04-28T13:44:13;21.80;80.61
51305;HTU21D;37392;50.964;6.952;2023-04-28T13:46:39;21.55;81.04
51305;HTU21D;37392;50.964;6.952;2023-04-28T13:49:06;21.57;80.98
51305;HTU21D;37392;50.964;6.952;2023-04-28T13:51:34;21.35;81.33
51305;HTU21D;37392;50.964;6.952;2023-04-28T13:54:00;21.17;82.81
51305;HTU21D;37392;50.964;6.952;2023-04-28T13:56:31;21.15;82.59
51305;HTU21D;37392;50.964;6.952;2023-04-28T13:58:56;21.00;82.78
51305;HTU21D;37392;50.964;6.952;2023-04-28T14:01:22;21.04;82.66
51305;HTU21D;37392;50.964;6.952;2023-04-28T14:03:49;21.11;82.21
51305;HTU21D;37392;50.964;6.952;2023-04-28T14:06:14;21.43;81.63
51305;HTU21D;37392;50.964;6.952;2023-04-28T14:08:40;21.85;80.53
51305;HTU21D;37392;50.964;6.952;2023-04-28T14:11:05;22.31;79.47
51305;HTU21D;37392;50.964;6.952;2023-04-28T14:13:32;22.62;77.72
51305;HTU21D;37392;50.964;6.952;2023-04-28T14:15:57;23.02;76.15
51305;HTU21D;37392;50.964;6.952;2023-04-28T14:18:23;23.20;74.28
51305;HTU21D;37392;50.964;6.952;2023-04-28T14:20:48;23.32;74.85
51305;HTU21D;37392;50.964;6.952;2023-04-28T14:23:14;23.16;73.37
51305;HTU21D;37392;50.964;6.952;2023-04-28T14:25:40;22.95;74.40
51305;HTU21D;37392;50.964;6.952;2023-04-28T14:28:06;22.93;75.22
51305;HTU21D;37392;50.964;6.952;2023-04-28T14:30:31;22.82;75.97
51305;HTU21D;37392;50.964;6.952;2023-04-28T14:32:57;22.94;76.12
51305;HTU21D;37392;50.964;6.952;2023-04-28T14:35:23;22.91;74.33
51305;HTU21D;37392;50.964;6.952;2023-04-28T14:37:49;22.97;73.99
51305;HTU21D;37392;50.964;6.952;2023-04-28T14:40:16;22.88;73.32
51305;HTU21D;37392;50.964;6.952;2023-04-28T14:42:41;22.98;71.10
51305;HTU21D;37392;50.964;6.952;2023-04-28T14:45:08;22.95;70.38
51305;HTU21D;37392;50.964;6.952;2023-04-28T14:47:35;23.00;69.96
51305;HTU21D;37392;50.964;6.952;2023-04-28T14:50:01;22.88;69.57
51305;HTU21D;37392;50.964;6.952;2023-04-28T14:52:27;22.91;69.73
51305;HTU21D;37392;50.964;6.952;2023-04-28T14:54:54;23.11;69.66
51305;HTU21D;37392;50.964;6.952;2023-04-28T14:57:19;23.18;69.19
51305;HTU21D;37392;50.964;6.952;2023-04-28T14:59:45;23.10;69.11
51305;HTU21D;37392;50.964;6.952;2023-04-28T15:02:11;23.09;69.26
51305;HTU21D;37392;50.964;6.952;2023-04-28T15:04:40;23.07;69.15
51305;HTU21D;37392;50.964;6.952;2023-04-28T15:07:06;23.00;69.55
51305;HTU21D;37392;50.964;6.952;2023-04-28T15:09:34;22.71;69.99
51305;HTU21D;37392;50.964;6.952;2023-04-28T15:12:00;22.50;71.12
51305;HTU21D;37392;50.964;6.952;2023-04-28T15:14:27;22.13;71.41
51305;HTU21D;37392;50.964;6.952;2023-04-28T15:16:53;22.11;72.16
51305;HTU21D;37392;50.964;6.952;2023-04-28T15:19:19;22.35;71.90
51305;HTU21D;37392;50.964;6.952;2023-04-28T15:21:45;22.43;70.97
51305;HTU21D;37392;50.964;6.952;2023-04-28T15:24:11;22.57;70.24
51305;HTU21D;37392;50.964;6.952;2023-04-28T15:26:39;22.69;69.71
51305;HTU21D;37392;50.964;6.952;2023-04-28T15:29:04;22.54;70.19
51305;HTU21D;37392;50.964;6.952;2023-04-28T15:31:30;22.41;70.03
51305;HTU21D;37392;50.964;6.952;2023-04-28T15:33:55;22.20;70.48